sensor_id;sensor_type;location;lat;lon;timestamp;temperature;humidity
52189;DHT22;38162;45.926;13.608;2022-10-24T01:00:08;17.60;99.90
52189;DHT22;38162;45.926;13.608;2022-10-24T01:02:34;17.60;99.90
52189;DHT22;38162;45.926;13.608;2022-10-24T01:05:01;17.60;99.90
52189;DHT22;38162;45.926;13.608;2022-10-24T01:16:49;17.60;99.90
52189;DHT22;38162;45.926;13.608;2022-10-24T01:22:06;17.50;99.90
52189;DHT22;38162;45.926;13.608;2022-10-24T01:37:50;17.40;99.90
52189;DHT22;38162;45.926;13.608;2022-10-24T01:40:22;17.40;99.90
52189;DHT22;38162;45.926;13.608;2022-10-24T01:42:49;17.40;99.90
52189;DHT22;38162;45.926;13.608;2022-10-24T01:45:24;17.40;99.90
52189;DHT22;38162;45.926;13.608;2022-10-24T01:47:53;17.40;99.90
52189;DHT22;38162;45.926;13.608;2022-10-24T01:50:21;17.50;99.90
52189;DHT22;38162;45.926;13.608;2022-10-24T01:52:49;17.50;99.90
52189;DHT22;38162;45.926;13.608;2022-10-24T01:55:15;17.50;99.90
52189;DHT22;38162;45.926;13.608;2022-10-24T01:57:41;17.50;99.90
52189;DHT22;38162;45.926;13.608;2022-10-24T02:00:15;17.50;99.90
52189;DHT22;38162;45.926;13.608;2022-10-24T02:02:44;17.50;99.90
52189;DHT22;38162;45.926;13.608;2022-10-24T02:07:41;17.50;99.90
52189;DHT22;38162;45.926;13.608;2022-10-24T02:10:11;17.50;99.90
52189;DHT22;38162;45.926;13.608;2022-10-24T02:12:41;17.50;99.90
52189;DHT22;38162;45.926;13.608;2022-10-24T02:15:24;17.50;99.90
52189;DHT22;38162;45.926;13.608;2022-10-24T02:17:52;17.60;99.90
52189;DHT22;38162;45.926;13.608;2022-10-24T02:20:24;17.60;99.90
52189;DHT22;38162;45.926;13.608;2022-10-24T02:22:58;17.60;99.90
52189;DHT22;38162;45.926;13.608;2022-10-24T02:25:37;17.60;99.90
52189;DHT22;38162;45.926;13.608;2022-10-24T02:28:10;17.60;99.90
52189;DHT22;38162;45.926;13.608;2022-10-24T02:30:46;17.60;99.90
52189;DHT22;38162;45.926;13.608;2022-10-24T02:33:13;17.60;99.90
52189;DHT22;38162;45.926;13.608;2022-10-24T02:35:41;17.60;99.90
52189;DHT22;38162;45.926;13.608;2022-10-24T02:38:14;17.60;99.90
52189;DHT22;38162;45.926;13.608;2022-10-24T02:40:43;17.60;99.90
52189;DHT22;38162;45.926;13.608;2022-10-24T02:43:10;17.60;99.90
52189;DHT22;38162;45.926;13.608;2022-10-24T02:45:38;17.70;99.90
52189;DHT22;38162;45.926;13.608;2022-10-24T02:48:07;17.60;99.90
52189;DHT22;38162;45.926;13.608;2022-10-24T02:50:35;17.60;99.90
52189;DHT22;38162;45.926;13.608;2022-10-24T02:53:02;17.60;99.90
52189;DHT22;38162;45.926;13.608;2022-10-24T02:55:27;17.70;99.90
52189;DHT22;38162;45.926;13.608;2022-10-24T02:57:53;17.70;99.90
52189;DHT22;38162;45.926;13.608;2022-10-24T03:00:19;17.70;99.90
52189;DHT22;38162;45.926;13.608;2022-10-24T03:02:45;17.70;99.90
52189;DHT22;38162;45.926;13.608;2022-10-24T03:05:10;17.70;99.90
52189;DHT22;38162;45.926;13.608;2022-10-24T03:07:36;17.70;99.90
52189;DHT22;38162;45.926;13.608;2022-10-24T03:10:02;17.70;99.90
52189;DHT22;38162;45.926;13.608;2022-10-24T03:12:28;17.70;99.90
52189;DHT22;38162;45.926;13.608;2022-10-24T03:14:53;17.70;99.90
52189;DHT22;38162;45.926;13.608;2022-10-24T03:17:19;17.70;99.90
52189;DHT22;38162;45.926;13.608;2022-10-24T03:19:46;17.70;99.90
52189;DHT22;38162;45.926;13.608;2022-10-24T03:22:11;17.70;99.90
52189;DHT22;38162;45.926;13.608;2022-10-24T03:24:37;17.70;99.90
52189;DHT22;38162;45.926;13.608;2022-10-24T03:27:03;17.70;99.90
52189;DHT22;38162;45.926;13.608;2022-10-24T03:29:28;17.70;99.90
52189;DHT22;38162;45.926;13.608;2022-10-24T03:31:54;17.70;99.90
52189;DHT22;38162;45.926;13.608;2022-10-24T03:34:20;17.70;99.90
52189;DHT22;38162;45.926;13.608;2022-10-24T03:36:45;17.70;99.90
52189;DHT22;38162;45.926;13.608;2022-10-24T03:39:11;17.70;99.90
52189;DHT22;38162;45.926;13.608;2022-10-24T03:41:37;17.70;99.90
52189;DHT22;38162;45.926;13.608;2022-10-24T03:44:02;17.70;99.90
52189;DHT22;38162;45.926;13.608;2022-10-24T03:46:28;17.70;99.90
52189;DHT22;38162;45.926;13.608;2022-10-24T03:48:54;17.70;99.90
52189;DHT22;38162;45.926;13.608;2022-10-24T03:51:19;17.70;99.90
52189;DHT22;38162;45.926;13.608;2022-10-24T03:53:45;17.70;99.90
52189;DHT22;38162;45.926;13.608;2022-10-24T03:56:11;17.70;99.90
52189;DHT22;38162;45.926;13.608;2022-10-24T03:58:36;17.70;99.90
52189;DHT22;38162;45.926;13.608;2022-10-24T04:01:02;17.70;99.90
52189;DHT22;38162;45.926;13.608;2022-10-24T04:03:28;17.70;99.90
52189;DHT22;38162;45.926;13.608;2022-10-24T04:05:54;17.70;99.90
52189;DHT22;38162;45.926;13.608;2022-10-24T04:08:19;17.70;99.90
52189;DHT22;38162;45.926;13.608;2022-10-24T04:10:47;17.70;99.90
52189;DHT22;38162;45.926;13.608;2022-10-24T04:13:12;17.70;99.90
52189;DHT22;38162;45.926;13.608;2022-10-24T04:15:38;17.70;99.90
52189;DHT22;38162;45.926;13.608;2022-10-24T04:18:04;17.70;99.90
52189;DHT22;38162;45.926;13.608;2022-10-24T04:20:30;17.70;99.90
52189;DHT22;38162;45.926;13.608;2022-10-24T04:22:55;17.70;99.90
52189;DHT22;38162;45.926;13.608;2022-10-24T04:25:21;17.70;99.90
52189;DHT22;38162;45.926;13.608;2022-10-24T04:27:46;17.70;99.90
52189;DHT22;38162;45.926;13.608;2022-10-24T04:30:14;17.70;99.90
52189;DHT22;38162;45.926;13.608;2022-10-24T04:32:40;17.70;99.90
52189;DHT22;38162;45.926;13.608;2022-10-24T04:35:05;17.70;99.90
52189;DHT22;38162;45.926;13.608;2022-10-24T04:37:31;17.70;99.90
52189;DHT22;38162;45.926;13.608;2022-10-24T04:39:57;17.70;99.90
52189;DHT22;38162;45.926;13.608;2022-10-24T04:42:23;17.70;99.90
52189;DHT22;38162;45.926;13.608;2022-10-24T04:44:49;17.70;99.90
52189;DHT22;38162;45.926;13.608;2022-10-24T04:47:15;17.80;99.90
52189;DHT22;38162;45.926;13.608;2022-10-24T04:49:41;17.70;99.90
52189;DHT22;38162;45.926;13.608;2022-10-24T04:52:07;17.70;99.90
52189;DHT22;38162;45.926;13.608;2022-10-24T04:54:33;17.70;99.90
52189;DHT22;38162;45.926;13.608;2022-10-24T04:56:58;17.70;99.90
52189;DHT22;38162;45.926;13.608;2022-10-24T04:59:24;17.70;99.90
52189;DHT22;38162;45.926;13.608;2022-10-24T05:01:49;17.70;99.90
52189;DHT22;38162;45.926;13.608;2022-10-24T05:04:15;17.70;99.90
52189;DHT22;38162;45.926;13.608;2022-10-24T05:06:41;17.70;99.90
52189;DHT22;38162;45.926;13.608;2022-10-24T05:09:06;17.80;99.90
52189;DHT22;38162;45.926;13.608;2022-10-24T05:11:32;17.70;99.90
52189;DHT22;38162;45.926;13.608;2022-10-24T05:13:58;17.70;99.90
52189;DHT22;38162;45.926;13.608;2022-10-24T05:16:24;17.80;99.90
52189;DHT22;38162;45.926;13.608;2022-10-24T05:18:50;17.70;99.90
52189;DHT22;38162;45.926;13.608;2022-10-24T05:21:15;17.70;99.90
52189;DHT22;38162;45.926;13.608;2022-10-24T05:23:41;17.70;99.90
52189;DHT22;38162;45.926;13.608;2022-10-24T05:26:07;17.70;99.90
52189;DHT22;38162;45.926;13.608;2022-10-24T05:28:33;17.70;99.90
52189;DHT22;38162;45.926;13.608;2022-10-24T05:30:59;17.70;99.90
52189;DHT22;38162;45.926;13.608;2022-10-24T05:33:25;17.70;99.90
52189;DHT22;38162;45.926;13.608;2022-10-24T05:35:51;17.60;99.90
52189;DHT22;38162;45.926;13.608;2022-10-24T05:38:17;17.60;99.90
52189;DHT22;38162;45.926;13.608;2022-10-24T05:40:43;17.60;99.90
52189;DHT22;38162;45.926;13.608;2022-10-24T05:43:12;17.70;99.90
52189;DHT22;38162;45.926;13.608;2022-10-24T05:45:38;17.70;99.90
52189;DHT22;38162;45.926;13.608;2022-10-24T05:48:04;17.70;99.90
52189;DHT22;38162;45.926;13.608;2022-10-24T05:50:30;17.70;99.90
52189;DHT22;38162;45.926;13.608;2022-10-24T05:52:55;17.70;99.90
52189;DHT22;38162;45.926;13.608;2022-10-24T05:55:21;17.70;99.90
52189;DHT22;38162;45.926;13.608;2022-10-24T05:57:47;17.70;99.90
52189;DHT22;38162;45.926;13.608;2022-10-24T06:00:14;17.70;99.90
52189;DHT22;38162;45.926;13.608;2022-10-24T06:02:40;17.70;99.90
52189;DHT22;38162;45.926;13.608;2022-10-24T06:05:07;17.70;99.90
52189;DHT22;38162;45.926;13.608;2022-10-24T06:07:34;17.70;99.90
52189;DHT22;38162;45.926;13.608;2022-10-24T06:10:00;17.80;99.90
52189;DHT22;38162;45.926;13.608;2022-10-24T06:12:26;17.80;99.90
52189;DHT22;38162;45.926;13.608;2022-10-24T06:14:56;17.80;99.90
52189;DHT22;38162;45.926;13.608;2022-10-24T06:17:22;17.80;99.90
52189;DHT22;38162;45.926;13.608;2022-10-24T06:19:48;17.80;99.90
52189;DHT22;38162;45.926;13.608;2022-10-24T06:22:16;17.80;99.90
52189;DHT22;38162;45.926;13.608;2022-10-24T06:24:41;17.80;99.90
52189;DHT22;38162;45.926;13.608;2022-10-24T06:27:07;17.80;99.90
52189;DHT22;38162;45.926;13.608;2022-10-24T06:29:33;17.80;99.90
52189;DHT22;38162;45.926;13.608;2022-10-24T06:31:59;17.80;99.90
52189;DHT22;38162;45.926;13.608;2022-10-24T06:34:25;17.80;99.90
52189;DHT22;38162;45.926;13.608;2022-10-24T06:36:50;17.80;99.90
52189;DHT22;38162;45.926;13.608;2022-10-24T06:39:16;17.80;99.90
52189;DHT22;38162;45.926;13.608;2022-10-24T06:41:42;17.90;99.90
52189;DHT22;38162;45.926;13.608;2022-10-24T06:44:07;17.90;99.90
52189;DHT22;38162;45.926;13.608;2022-10-24T06:46:33;17.90;99.90
52189;DHT22;38162;45.926;13.608;2022-10-24T06:48:59;17.90;99.90
52189;DHT22;38162;45.926;13.608;2022-10-24T06:51:24;18.00;99.90
52189;DHT22;38162;45.926;13.608;2022-10-24T06:53:50;17.90;99.90
52189;DHT22;38162;45.926;13.608;2022-10-24T06:56:16;17.90;99.90
52189;DHT22;38162;45.926;13.608;2022-10-24T06:58:43;18.00;99.90
52189;DHT22;38162;45.926;13.608;2022-10-24T07:01:11;18.00;99.90
52189;DHT22;38162;45.926;13.608;2022-10-24T07:03:37;18.00;99.90
52189;DHT22;38162;45.926;13.608;2022-10-24T07:06:13;18.00;99.90
52189;DHT22;38162;45.926;13.608;2022-10-24T07:08:39;18.10;99.90
52189;DHT22;38162;45.926;13.608;2022-10-24T07:11:05;18.10;99.90
52189;DHT22;38162;45.926;13.608;2022-10-24T07:13:30;18.10;99.90
52189;DHT22;38162;45.926;13.608;2022-10-24T07:15:56;18.10;99.90
52189;DHT22;38162;45.926;13.608;2022-10-24T07:18:22;18.10;99.90
52189;DHT22;38162;45.926;13.608;2022-10-24T07:20:47;18.10;99.90
52189;DHT22;38162;45.926;13.608;2022-10-24T07:23:13;18.10;99.90
52189;DHT22;38162;45.926;13.608;2022-10-24T07:25:40;18.10;99.90
52189;DHT22;38162;45.926;13.608;2022-10-24T07:28:07;18.20;99.90
52189;DHT22;38162;45.926;13.608;2022-10-24T07:30:33;18.10;99.90
52189;DHT22;38162;45.926;13.608;2022-10-24T07:32:59;18.10;99.90
52189;DHT22;38162;45.926;13.608;2022-10-24T07:35:24;18.20;99.90
52189;DHT22;38162;45.926;13.608;2022-10-24T07:37:50;18.20;99.90
52189;DHT22;38162;45.926;13.608;2022-10-24T07:40:18;18.30;99.90
52189;DHT22;38162;45.926;13.608;2022-10-24T07:42:43;18.30;99.90
52189;DHT22;38162;45.926;13.608;2022-10-24T07:45:10;18.30;99.90
52189;DHT22;38162;45.926;13.608;2022-10-24T07:47:35;18.30;99.90
52189;DHT22;38162;45.926;13.608;2022-10-24T07:50:02;18.40;99.90
52189;DHT22;38162;45.926;13.608;2022-10-24T07:52:27;18.40;99.90
52189;DHT22;38162;45.926;13.608;2022-10-24T07:54:53;18.40;99.90
52189;DHT22;38162;45.926;13.608;2022-10-24T07:57:20;18.40;99.90
52189;DHT22;38162;45.926;13.608;2022-10-24T07:59:45;18.50;99.90
52189;DHT22;38162;45.926;13.608;2022-10-24T08:02:13;18.50;99.90
52189;DHT22;38162;45.926;13.608;2022-10-24T08:04:39;18.50;99.90
52189;DHT22;38162;45.926;13.608;2022-10-24T08:07:06;18.60;99.90
52189;DHT22;38162;45.926;13.608;2022-10-24T08:09:38;18.60;99.90
52189;DHT22;38162;45.926;13.608;2022-10-24T08:12:03;18.60;99.90
52189;DHT22;38162;45.926;13.608;2022-10-24T08:14:29;18.70;99.90
52189;DHT22;38162;45.926;13.608;2022-10-24T08:16:55;18.70;99.90
52189;DHT22;38162;45.926;13.608;2022-10-24T08:19:20;18.70;99.90
52189;DHT22;38162;45.926;13.608;2022-10-24T08:21:46;18.70;99.90
52189;DHT22;38162;45.926;13.608;2022-10-24T08:24:11;18.80;99.90
52189;DHT22;38162;45.926;13.608;2022-10-24T08:26:37;18.80;99.90
52189;DHT22;38162;45.926;13.608;2022-10-24T08:29:05;18.80;99.90
52189;DHT22;38162;45.926;13.608;2022-10-24T08:31:36;18.80;99.90
52189;DHT22;38162;45.926;13.608;2022-10-24T08:34:02;18.90;99.90
52189;DHT22;38162;45.926;13.608;2022-10-24T08:36:34;18.90;99.90
52189;DHT22;38162;45.926;13.608;2022-10-24T08:39:01;19.00;99.90
52189;DHT22;38162;45.926;13.608;2022-10-24T08:41:36;19.00;99.90
52189;DHT22;38162;45.926;13.608;2022-10-24T08:44:16;19.00;99.90
52189;DHT22;38162;45.926;13.608;2022-10-24T08:46:57;19.00;99.90
52189;DHT22;38162;45.926;13.608;2022-10-24T08:55:26;19.10;99.90
52189;DHT22;38162;45.926;13.608;2022-10-24T08:57:56;19.10;99.90
52189;DHT22;38162;45.926;13.608;2022-10-24T09:00:41;19.10;99.90
52189;DHT22;38162;45.926;13.608;2022-10-24T09:03:14;19.10;99.90
52189;DHT22;38162;45.926;13.608;2022-10-24T09:05:46;19.20;99.90
52189;DHT22;38162;45.926;13.608;2022-10-24T09:11:05;19.20;99.60
52189;DHT22;38162;45.926;13.608;2022-10-24T09:13:35;19.30;99.50
52189;DHT22;38162;45.926;13.608;2022-10-24T09:16:02;19.30;99.30
52189;DHT22;38162;45.926;13.608;2022-10-24T09:18:38;19.30;99.20
52189;DHT22;38162;45.926;13.608;2022-10-24T09:21:06;19.30;98.80
52189;DHT22;38162;45.926;13.608;2022-10-24T09:23:35;19.30;98.80
52189;DHT22;38162;45.926;13.608;2022-10-24T09:26:03;19.40;98.80
52189;DHT22;38162;45.926;13.608;2022-10-24T09:28:33;19.40;98.90
52189;DHT22;38162;45.926;13.608;2022-10-24T09:31:03;19.40;98.70
52189;DHT22;38162;45.926;13.608;2022-10-24T09:33:38;19.40;98.40
52189;DHT22;38162;45.926;13.608;2022-10-24T09:36:10;19.50;98.40
52189;DHT22;38162;45.926;13.608;2022-10-24T09:38:38;19.40;98.20
52189;DHT22;38162;45.926;13.608;2022-10-24T09:41:05;19.50;98.00
52189;DHT22;38162;45.926;13.608;2022-10-24T09:43:33;19.50;97.90
52189;DHT22;38162;45.926;13.608;2022-10-24T09:51:32;19.60;98.00
52189;DHT22;38162;45.926;13.608;2022-10-24T09:56:34;19.60;97.60
52189;DHT22;38162;45.926;13.608;2022-10-24T10:05:17;19.70;97.00
52189;DHT22;38162;45.926;13.608;2022-10-24T10:07:44;19.60;97.30
52189;DHT22;38162;45.926;13.608;2022-10-24T10:10:28;19.70;97.60
52189;DHT22;38162;45.926;13.608;2022-10-24T10:13:02;19.70;97.70
52189;DHT22;38162;45.926;13.608;2022-10-24T10:15:33;19.70;97.90
52189;DHT22;38162;45.926;13.608;2022-10-24T10:18:20;19.70;97.60
52189;DHT22;38162;45.926;13.608;2022-10-24T10:25:48;19.80;97.80
52189;DHT22;38162;45.926;13.608;2022-10-24T10:28:19;19.80;97.30
52189;DHT22;38162;45.926;13.608;2022-10-24T10:30:55;19.80;97.20
52189;DHT22;38162;45.926;13.608;2022-10-24T10:33:29;19.80;97.60
52189;DHT22;38162;45.926;13.608;2022-10-24T10:36:29;19.80;97.20
52189;DHT22;38162;45.926;13.608;2022-10-24T10:41:56;19.80;97.20
52189;DHT22;38162;45.926;13.608;2022-10-24T11:09:40;19.90;97.70
52189;DHT22;38162;45.926;13.608;2022-10-24T11:12:47;19.90;97.80
52189;DHT22;38162;45.926;13.608;2022-10-24T11:17:50;20.00;97.60
52189;DHT22;38162;45.926;13.608;2022-10-24T11:20:24;20.00;97.40
52189;DHT22;38162;45.926;13.608;2022-10-24T11:23:10;20.00;97.20
52189;DHT22;38162;45.926;13.608;2022-10-24T11:26:01;20.00;97.10
52189;DHT22;38162;45.926;13.608;2022-10-24T11:31:36;20.10;96.90
52189;DHT22;38162;45.926;13.608;2022-10-24T11:34:16;20.10;96.50
52189;DHT22;38162;45.926;13.608;2022-10-24T11:41:49;20.10;96.80
52189;DHT22;38162;45.926;13.608;2022-10-24T11:50:04;20.10;97.00
52189;DHT22;38162;45.926;13.608;2022-10-24T11:52:36;20.10;97.00
52189;DHT22;38162;45.926;13.608;2022-10-24T11:55:23;20.10;96.90
52189;DHT22;38162;45.926;13.608;2022-10-24T11:57:54;20.10;96.90
52189;DHT22;38162;45.926;13.608;2022-10-24T12:03:41;20.10;96.80
52189;DHT22;38162;45.926;13.608;2022-10-24T12:09:17;20.20;96.60
52189;DHT22;38162;45.926;13.608;2022-10-24T12:11:57;20.10;96.50
52189;DHT22;38162;45.926;13.608;2022-10-24T12:19:55;20.20;96.40
52189;DHT22;38162;45.926;13.608;2022-10-24T12:22:27;20.20;96.60
52189;DHT22;38162;45.926;13.608;2022-10-24T12:25:20;20.30;96.60
52189;DHT22;38162;45.926;13.608;2022-10-24T12:27:53;20.30;96.60
52189;DHT22;38162;45.926;13.608;2022-10-24T12:30:21;20.30;96.60
52189;DHT22;38162;45.926;13.608;2022-10-24T12:38:00;20.40;96.30
52189;DHT22;38162;45.926;13.608;2022-10-24T14:04:14;21.40;91.80
52189;DHT22;38162;45.926;13.608;2022-10-24T14:06:40;21.40;92.10
52189;DHT22;38162;45.926;13.608;2022-10-24T14:09:06;21.30;92.40
52189;DHT22;38162;45.926;13.608;2022-10-24T14:11:40;21.30;91.90
52189;DHT22;38162;45.926;13.608;2022-10-24T14:17:24;21.20;92.00
52189;DHT22;38162;45.926;13.608;2022-10-24T14:19:55;21.10;92.00
52189;DHT22;38162;45.926;13.608;2022-10-24T14:22:24;21.10;92.30
52189;DHT22;38162;45.926;13.608;2022-10-24T14:24:50;21.10;92.60
52189;DHT22;38162;45.926;13.608;2022-10-24T14:27:18;21.00;92.70
52189;DHT22;38162;45.926;13.608;2022-10-24T14:29:59;21.00;93.00
52189;DHT22;38162;45.926;13.608;2022-10-24T14:32:27;21.00;92.80
52189;DHT22;38162;45.926;13.608;2022-10-24T14:34:54;21.00;92.90
52189;DHT22;38162;45.926;13.608;2022-10-24T14:37:30;21.00;93.10
52189;DHT22;38162;45.926;13.608;2022-10-24T14:39:57;21.00;93.20
52189;DHT22;38162;45.926;13.608;2022-10-24T14:42:23;20.90;93.30
52189;DHT22;38162;45.926;13.608;2022-10-24T14:44:50;20.90;93.40
52189;DHT22;38162;45.926;13.608;2022-10-24T14:47:23;20.90;93.40
52189;DHT22;38162;45.926;13.608;2022-10-24T14:49:50;20.90;93.40
52189;DHT22;38162;45.926;13.608;2022-10-24T14:52:23;20.80;93.40
52189;DHT22;38162;45.926;13.608;2022-10-24T14:55:17;20.80;93.60
52189;DHT22;38162;45.926;13.608;2022-10-24T14:57:49;20.80;93.80
52189;DHT22;38162;45.926;13.608;2022-10-24T15:00:23;20.80;94.10
52189;DHT22;38162;45.926;13.608;2022-10-24T15:02:51;20.80;94.00
52189;DHT22;38162;45.926;13.608;2022-10-24T15:07:45;20.80;94.30
52189;DHT22;38162;45.926;13.608;2022-10-24T15:12:39;20.80;93.70
52189;DHT22;38162;45.926;13.608;2022-10-24T15:15:28;20.80;93.70
52189;DHT22;38162;45.926;13.608;2022-10-24T15:18:19;20.70;93.70
52189;DHT22;38162;45.926;13.608;2022-10-24T15:20:46;20.70;93.60
52189;DHT22;38162;45.926;13.608;2022-10-24T15:23:21;20.70;93.60
52189;DHT22;38162;45.926;13.608;2022-10-24T15:26:07;20.70;93.60
52189;DHT22;38162;45.926;13.608;2022-10-24T15:31:15;20.60;93.60
52189;DHT22;38162;45.926;13.608;2022-10-24T15:33:41;20.60;93.60
52189;DHT22;38162;45.926;13.608;2022-10-24T15:36:22;20.60;93.60
52189;DHT22;38162;45.926;13.608;2022-10-24T15:38:57;20.60;93.70
52189;DHT22;38162;45.926;13.608;2022-10-24T15:41:24;20.60;93.40
52189;DHT22;38162;45.926;13.608;2022-10-24T15:43:50;20.50;93.40
52189;DHT22;38162;45.926;13.608;2022-10-24T15:46:16;20.50;93.50
52189;DHT22;38162;45.926;13.608;2022-10-24T15:48:42;20.50;93.70
52189;DHT22;38162;45.926;13.608;2022-10-24T15:51:12;20.50;93.40
52189;DHT22;38162;45.926;13.608;2022-10-24T15:53:38;20.50;93.60
52189;DHT22;38162;45.926;13.608;2022-10-24T15:56:04;20.50;93.60
52189;DHT22;38162;45.926;13.608;2022-10-24T15:58:30;20.40;93.60
52189;DHT22;38162;45.926;13.608;2022-10-24T16:00:56;20.40;93.70
52189;DHT22;38162;45.926;13.608;2022-10-24T16:03:23;20.40;93.80
52189;DHT22;38162;45.926;13.608;2022-10-24T16:05:51;20.30;93.90
52189;DHT22;38162;45.926;13.608;2022-10-24T16:08:18;20.30;94.10
52189;DHT22;38162;45.926;13.608;2022-10-24T16:10:47;20.30;94.20
52189;DHT22;38162;45.926;13.608;2022-10-24T16:13:14;20.30;94.30
52189;DHT22;38162;45.926;13.608;2022-10-24T16:15:40;20.30;94.40
52189;DHT22;38162;45.926;13.608;2022-10-24T16:18:07;20.30;94.50
52189;DHT22;38162;45.926;13.608;2022-10-24T16:20:33;20.30;94.70
52189;DHT22;38162;45.926;13.608;2022-10-24T16:22:59;20.30;94.70
52189;DHT22;38162;45.926;13.608;2022-10-24T16:25:27;20.30;94.80
52189;DHT22;38162;45.926;13.608;2022-10-24T16:27:53;20.20;94.80
52189;DHT22;38162;45.926;13.608;2022-10-24T16:30:21;20.20;94.90
52189;DHT22;38162;45.926;13.608;2022-10-24T16:32:47;20.20;95.00
52189;DHT22;38162;45.926;13.608;2022-10-24T16:35:19;20.20;95.10
52189;DHT22;38162;45.926;13.608;2022-10-24T16:37:45;20.20;95.20
52189;DHT22;38162;45.926;13.608;2022-10-24T16:40:11;20.20;95.20
52189;DHT22;38162;45.926;13.608;2022-10-24T16:42:37;20.20;95.30
52189;DHT22;38162;45.926;13.608;2022-10-24T16:45:04;20.20;95.30
52189;DHT22;38162;45.926;13.608;2022-10-24T16:47:30;20.10;95.40
52189;DHT22;38162;45.926;13.608;2022-10-24T16:49:57;20.10;95.50
52189;DHT22;38162;45.926;13.608;2022-10-24T16:52:23;20.10;95.50
52189;DHT22;38162;45.926;13.608;2022-10-24T16:54:49;20.10;95.50
52189;DHT22;38162;45.926;13.608;2022-10-24T16:57:15;20.10;95.50
52189;DHT22;38162;45.926;13.608;2022-10-24T16:59:40;20.10;95.10
52189;DHT22;38162;45.926;13.608;2022-10-24T17:02:06;20.10;95.30
52189;DHT22;38162;45.926;13.608;2022-10-24T17:04:35;20.10;95.40
52189;DHT22;38162;45.926;13.608;2022-10-24T17:07:01;20.10;95.30
52189;DHT22;38162;45.926;13.608;2022-10-24T17:09:28;20.10;95.20
52189;DHT22;38162;45.926;13.608;2022-10-24T17:11:54;20.10;95.20
52189;DHT22;38162;45.926;13.608;2022-10-24T17:14:24;20.10;95.20
52189;DHT22;38162;45.926;13.608;2022-10-24T17:16:50;20.10;95.20
52189;DHT22;38162;45.926;13.608;2022-10-24T17:19:16;20.10;95.10
52189;DHT22;38162;45.926;13.608;2022-10-24T17:21:43;20.10;94.90
52189;DHT22;38162;45.926;13.608;2022-10-24T17:24:11;20.10;94.30
52189;DHT22;38162;45.926;13.608;2022-10-24T17:26:38;20.20;94.00
52189;DHT22;38162;45.926;13.608;2022-10-24T17:29:04;20.10;93.70
52189;DHT22;38162;45.926;13.608;2022-10-24T17:31:30;20.10;93.60
52189;DHT22;38162;45.926;13.608;2022-10-24T17:33:56;20.10;93.30
52189;DHT22;38162;45.926;13.608;2022-10-24T17:36:27;20.20;93.50
52189;DHT22;38162;45.926;13.608;2022-10-24T17:39:10;20.10;93.30
52189;DHT22;38162;45.926;13.608;2022-10-24T17:41:38;20.20;93.30
52189;DHT22;38162;45.926;13.608;2022-10-24T17:44:06;20.20;93.10
52189;DHT22;38162;45.926;13.608;2022-10-24T17:46:32;20.20;93.00
52189;DHT22;38162;45.926;13.608;2022-10-24T17:48:58;20.10;92.90
52189;DHT22;38162;45.926;13.608;2022-10-24T17:51:25;20.10;93.20
52189;DHT22;38162;45.926;13.608;2022-10-24T17:53:52;20.10;93.20
52189;DHT22;38162;45.926;13.608;2022-10-24T17:56:18;20.10;93.10
52189;DHT22;38162;45.926;13.608;2022-10-24T17:58:43;20.10;92.90
52189;DHT22;38162;45.926;13.608;2022-10-24T18:01:11;20.10;93.00
52189;DHT22;38162;45.926;13.608;2022-10-24T18:03:37;20.10;93.10
52189;DHT22;38162;45.926;13.608;2022-10-24T18:06:05;20.10;93.20
52189;DHT22;38162;45.926;13.608;2022-10-24T18:08:31;20.10;93.30
52189;DHT22;38162;45.926;13.608;2022-10-24T18:11:01;20.10;93.30
52189;DHT22;38162;45.926;13.608;2022-10-24T18:13:27;20.10;93.40
52189;DHT22;38162;45.926;13.608;2022-10-24T18:15:53;20.00;93.30
52189;DHT22;38162;45.926;13.608;2022-10-24T18:18:19;20.10;93.30
52189;DHT22;38162;45.926;13.608;2022-10-24T18:20:47;20.10;92.90
52189;DHT22;38162;45.926;13.608;2022-10-24T18:23:12;20.00;92.40
52189;DHT22;38162;45.926;13.608;2022-10-24T18:25:38;20.00;91.60
52189;DHT22;38162;45.926;13.608;2022-10-24T18:28:04;20.00;91.50
52189;DHT22;38162;45.926;13.608;2022-10-24T18:30:29;20.00;91.60
52189;DHT22;38162;45.926;13.608;2022-10-24T18:32:56;20.00;91.80
52189;DHT22;38162;45.926;13.608;2022-10-24T18:35:21;20.00;92.00
52189;DHT22;38162;45.926;13.608;2022-10-24T18:37:48;20.00;92.10
52189;DHT22;38162;45.926;13.608;2022-10-24T18:40:14;20.00;92.30
52189;DHT22;38162;45.926;13.608;2022-10-24T18:42:53;20.00;92.40
52189;DHT22;38162;45.926;13.608;2022-10-24T18:45:22;20.00;92.40
52189;DHT22;38162;45.926;13.608;2022-10-24T18:47:49;20.00;91.30
52189;DHT22;38162;45.926;13.608;2022-10-24T18:50:18;20.00;90.70
52189;DHT22;38162;45.926;13.608;2022-10-24T18:53:07;19.90;91.00
52189;DHT22;38162;45.926;13.608;2022-10-24T18:55:41;19.90;91.10
52189;DHT22;38162;45.926;13.608;2022-10-24T18:58:12;19.90;91.30
52189;DHT22;38162;45.926;13.608;2022-10-24T19:00:41;19.90;91.50
52189;DHT22;38162;45.926;13.608;2022-10-24T19:03:31;19.90;91.60
52189;DHT22;38162;45.926;13.608;2022-10-24T19:08:44;19.90;91.50
52189;DHT22;38162;45.926;13.608;2022-10-24T19:11:10;19.90;91.60
52189;DHT22;38162;45.926;13.608;2022-10-24T19:13:39;19.80;91.80
52189;DHT22;38162;45.926;13.608;2022-10-24T19:16:05;19.80;91.90
52189;DHT22;38162;45.926;13.608;2022-10-24T19:18:33;19.90;92.10
52189;DHT22;38162;45.926;13.608;2022-10-24T19:21:00;19.80;92.20
52189;DHT22;38162;45.926;13.608;2022-10-24T19:23:26;19.80;92.20
52189;DHT22;38162;45.926;13.608;2022-10-24T19:25:52;19.80;92.40
52189;DHT22;38162;45.926;13.608;2022-10-24T19:28:18;19.70;92.50
52189;DHT22;38162;45.926;13.608;2022-10-24T19:30:45;19.70;92.50
52189;DHT22;38162;45.926;13.608;2022-10-24T19:33:12;19.70;92.60
52189;DHT22;38162;45.926;13.608;2022-10-24T19:35:40;19.70;93.00
52189;DHT22;38162;45.926;13.608;2022-10-24T19:38:16;19.70;92.50
52189;DHT22;38162;45.926;13.608;2022-10-24T19:40:50;19.60;92.60
52189;DHT22;38162;45.926;13.608;2022-10-24T19:43:16;19.60;92.70
52189;DHT22;38162;45.926;13.608;2022-10-24T19:45:42;19.60;92.80
52189;DHT22;38162;45.926;13.608;2022-10-24T19:48:09;19.60;92.80
52189;DHT22;38162;45.926;13.608;2022-10-24T19:50:36;19.60;92.90
52189;DHT22;38162;45.926;13.608;2022-10-24T19:53:02;19.60;92.90
52189;DHT22;38162;45.926;13.608;2022-10-24T19:55:27;19.60;92.90
52189;DHT22;38162;45.926;13.608;2022-10-24T19:57:53;19.60;93.00